Time;durP1;ratioP1;P1;durP2;ratioP2;P2;SDS_P1;SDS_P2;PMS_P1;PMS_P2;Temp;Humidity;BMP_temperature;BMP_pressure;BME280_temperature;BME280_humidity;BME280_pressure;Samples;Min_cycle;Max_cycle;Signal;HPM_P1;HPM_P2
2022/06/20 00:00:59;;;;;;;17.45;8.75;;;25.30;55.20;;;25.84;46.78;96893.81;5022628;28;20255;-49
2022/06/20 00:03:36;;;;;;;17.20;8.88;;;25.30;55.80;;;25.82;47.06;96894.09;5024168;28;20061;-47
2022/06/20 00:06:05;;;;;;;13.60;8.60;;;25.30;55.80;;;25.86;46.69;96894.38;5023932;28;20401;-46
2022/06/20 00:08:33;;;;;;;16.48;9.27;;;25.30;55.10;;;25.84;46.49;96904.72;5022673;28;20053;-49
2022/06/20 00:11:01;;;;;;;11.10;8.27;;;25.30;55.40;;;25.88;46.24;96897.63;5023304;28;20056;-50
2022/06/20 00:13:34;;;;;;;12.13;8.73;;;25.40;54.90;;;25.79;47.14;96893.88;5024196;28;20060;-48
2022/06/20 00:16:03;;;;;;;12.43;7.97;;;25.20;55.90;;;25.74;46.70;96898.25;5022790;28;20209;-45
2022/06/20 00:18:31;;;;;;;10.82;8.25;;;25.20;55.50;;;25.63;47.15;96891.19;5023630;28;20046;-50
2022/06/20 00:20:59;;;;;;;11.60;7.55;;;25.10;57.20;;;25.53;47.40;96881.13;5023958;28;20073;-45
2022/06/20 00:23:27;;;;;;;16.67;10.07;;;24.90;56.80;;;25.42;47.68;96875.97;5023792;28;20060;-47
2022/06/20 00:25:55;;;;;;;14.57;7.97;;;24.90;57.10;;;25.50;47.45;96876.22;5023613;28;20049;-45
2022/06/20 00:28:23;;;;;;;12.45;9.07;;;24.90;56.40;;;25.57;47.40;96880.56;5022386;28;20049;-49
2022/06/20 00:30:50;;;;;;;12.82;8.20;;;25.10;56.10;;;25.54;47.54;96881.94;5024378;28;20056;-47
2022/06/20 00:33:18;;;;;;;16.08;9.25;;;25.00;56.00;;;25.59;47.06;96892.00;5022571;28;20055;-46
2022/06/20 00:35:46;;;;;;;17.80;10.50;;;25.10;55.60;;;25.66;47.10;96904.25;5024056;28;20049;-49
2022/06/20 00:38:19;;;;;;;12.65;8.38;;;25.20;55.30;;;25.66;47.30;96897.97;5022184;28;20046;-45
2022/06/20 00:40:52;;;;;;;14.40;8.63;;;25.30;55.50;;;25.58;47.12;96904.00;5022518;28;20052;-49
2022/06/20 00:43:26;;;;;;;18.95;8.45;;;25.20;55.40;;;25.42;47.47;96904.03;5023717;28;20052;-48
2022/06/20 00:45:57;;;;;;;17.58;8.35;;;24.90;56.40;;;25.50;47.13;96902.66;5023202;28;20056;-47
2022/06/20 00:48:45;;;;;;;11.43;8.20;;;25.00;55.70;;;25.58;47.40;96901.28;5022138;28;20050;-47
2022/06/20 00:51:39;;;;;;;8.43;7.60;;;25.20;55.60;;;25.64;46.69;96881.09;5022276;28;20050;-47
2022/06/20 00:54:32;;;;;;;11.55;8.63;;;25.30;55.30;;;25.72;46.70;96910.50;5023235;28;20243;-47
2022/06/20 00:57:25;;;;;;;12.35;8.93;;;25.40;55.60;;;25.77;48.92;96877.78;5021827;28;20050;-46
2022/06/20 01:00:26;;;;;;;13.10;9.27;;;25.50;58.80;;;25.78;51.04;96878.59;5022494;28;20049;-47
2022/06/20 01:03:11;;;;;;;15.95;8.85;;;25.50;66.20;;;25.72;51.73;96913.22;5023330;28;20044;-49
2022/06/20 01:06:12;;;;;;;16.00;9.85;;;25.20;65.10;;;25.57;52.27;96907.81;5022067;28;20233;-48
2022/06/20 01:08:44;;;;;;;11.85;8.40;;;25.00;65.80;;;25.56;50.83;96907.00;5022688;28;20056;-49
2022/06/20 01:11:40;;;;;;;10.77;8.25;;;25.10;63.20;;;25.54;50.69;96901.81;5022256;28;20056;-47
2022/06/20 01:14:34;;;;;;;15.07;8.98;;;25.10;64.50;;;25.50;51.49;96897.19;5021798;28;20058;-46
2022/06/20 01:17:27;;;;;;;15.27;9.80;;;25.10;65.00;;;25.48;51.25;96893.94;5023346;28;20050;-48
2022/06/20 01:20:16;;;;;;;14.98;8.85;;;25.00;63.20;;;25.35;51.35;96898.84;5021764;28;20053;-48
2022/06/20 01:22:56;;;;;;;11.82;8.38;;;24.90;65.50;;;25.37;50.93;96901.28;5021442;28;20060;-46
2022/06/20 01:25:57;;;;;;;13.55;8.80;;;24.90;63.90;;;25.36;51.53;96902.41;5022791;28;20060;-46
2022/06/20 01:28:36;;;;;;;16.35;10.30;;;24.90;65.20;;;25.28;52.16;96902.94;5022477;28;20050;-49
2022/06/20 01:31:06;;;;;;;17.45;9.85;;;24.80;65.60;;;25.31;52.94;96888.78;5021844;28;20056;-48
2022/06/20 01:33:35;;;;;;;16.45;9.32;;;24.80;66.60;;;25.31;52.90;96891.50;5021956;28;20137;-48
2022/06/20 01:38:50;;;;;;;13.70;9.65;;;24.70;66.60;;;25.21;53.12;96875.16;5020955;28;20042;-51
2022/06/20 01:44:05;;;;;;;14.65;8.80;;;24.70;67.80;;;25.13;53.19;96868.34;5022256;28;20050;-48
2022/06/20 01:46:35;;;;;;;14.60;10.38;;;24.60;67.00;;;25.11;53.34;96873.25;5022414;28;20050;-45
2022/06/20 01:49:14;;;;;;;12.68;9.63;;;24.60;67.50;;;25.10;53.14;96879.78;5022144;28;20071;-48
2022/06/20 01:52:20;;;;;;;14.73;9.95;;;24.50;67.80;;;25.02;52.75;96877.59;5022494;28;20054;-48
2022/06/20 01:55:04;;;;;;;13.88;9.10;;;24.50;67.50;;;25.01;52.68;96879.53;5022316;28;20059;-47
2022/06/20 01:57:35;;;;;;;14.10;9.05;;;24.50;67.00;;;25.02;52.91;96881.13;5020907;28;20064;-45
2022/06/20 02:00:15;;;;;;;15.38;10.85;;;24.50;66.90;;;25.03;53.02;96880.06;5022380;28;20356;-47
2022/06/20 02:02:53;;;;;;;13.20;8.77;;;24.50;68.30;;;24.95;53.64;96883.31;5021239;28;20053;-45
2022/06/20 02:05:27;;;;;;;15.70;10.45;;;24.50;67.90;;;24.88;53.36;96877.34;5022294;28;20237;-50
2022/06/20 02:08:00;;;;;;;13.23;8.77;;;24.30;67.40;;;24.89;53.35;96877.06;5020648;28;20064;-49
2022/06/20 02:10:47;;;;;;;15.23;9.82;;;24.40;67.30;;;24.90;52.88;96870.53;5021475;28;20046;-47
2022/06/20 02:13:18;;;;;;;14.00;9.27;;;24.50;67.00;;;24.93;53.08;96880.88;5020639;28;20348;-47
2022/06/20 02:15:51;;;;;;;14.65;9.73;;;24.50;66.10;;;24.91;52.98;96872.16;5022153;28;20050;-46
2022/06/20 02:18:20;;;;;;;10.80;9.38;;;24.50;65.80;;;24.98;53.17;96863.72;5021030;28;20046;-47
2022/06/20 02:20:51;;;;;;;10.68;8.88;;;24.60;65.60;;;25.07;52.76;96858.56;5022629;28;20392;-47
2022/06/20 02:23:27;;;;;;;14.57;10.65;;;24.70;65.00;;;25.13;52.14;96865.63;5020960;28;20056;-45
2022/06/20 02:25:58;;;;;;;13.88;8.98;;;24.80;64.30;;;25.14;52.47;96851.75;5021419;28;20054;-49
2022/06/20 02:28:54;;;;;;;17.48;10.75;;;24.80;63.90;;;25.13;51.92;96861.00;5021649;28;20344;-47
2022/06/20 02:31:22;;;;;;;10.48;8.52;;;24.80;63.50;;;25.08;51.78;96852.00;5023933;28;20057;-48
2022/06/20 02:33:53;;;;;;;13.82;10.30;;;24.70;63.00;;;25.10;51.40;96847.09;5021892;28;20272;-50
2022/06/20 02:36:22;;;;;;;10.55;7.55;;;24.70;62.30;;;25.07;50.77;96844.94;5022080;28;20037;-48
2022/06/20 02:38:52;;;;;;;11.05;9.00;;;24.70;61.60;;;25.07;51.02;96850.38;5020339;28;20252;-46
2022/06/20 02:41:24;;;;;;;14.63;10.23;;;24.70;61.30;;;25.12;50.96;96844.91;5020839;28;20056;-50
2022/06/20 02:44:01;;;;;;;13.50;8.63;;;24.80;61.10;;;25.06;50.52;96844.09;5020659;28;20248;-47
2022/06/20 02:46:31;;;;;;;16.52;8.75;;;24.70;60.70;;;25.06;50.57;96837.84;5021260;28;20345;-47
2022/06/20 02:49:03;;;;;;;14.82;9.38;;;24.70;60.90;;;25.08;50.70;96854.72;5020363;28;20048;-48
2022/06/20 02:51:38;;;;;;;12.77;9.38;;;24.70;61.00;;;25.00;50.71;96852.56;5023591;28;20052;-48
2022/06/20 02:54:10;;;;;;;16.42;8.63;;;24.60;61.70;;;24.98;50.78;96852.81;5024228;28;20050;-49
2022/06/20 02:57:00;;;;;;;15.77;9.98;;;24.60;61.30;;;25.00;50.41;96852.56;5025420;28;20038;-45
2022/06/20 02:59:34;;;;;;;14.35;8.80;;;24.60;60.90;;;25.02;50.53;96853.09;5024704;28;20049;-46
2022/06/20 03:02:09;;;;;;;11.82;9.00;;;24.70;60.50;;;25.03;50.30;96857.44;5025219;28;20054;-45
2022/06/20 03:04:41;;;;;;;11.40;8.10;;;24.70;60.20;;;25.06;50.14;96865.06;5024020;28;20064;-50
2022/06/20 03:07:18;;;;;;;20.83;9.23;;;24.70;59.90;;;24.77;51.35;96944.53;5025320;28;20050;-46
2022/06/20 03:09:52;;;;;;;15.45;10.38;;;24.50;61.40;;;24.62;50.95;96942.63;5024473;28;20049;-48
2022/06/20 03:12:20;;;;;;;15.40;10.10;;;24.20;61.60;;;24.60;50.89;96924.91;5023819;28;20041;-46
2022/06/20 03:14:55;;;;;;;13.95;9.75;;;24.10;62.20;;;24.23;52.37;96974.81;5024819;28;20052;-47
2022/06/20 03:17:23;;;;;;;12.95;8.52;;;23.70;64.60;;;24.23;51.67;96955.78;5024004;28;20056;-46
2022/06/20 03:19:57;;;;;;;11.93;8.20;;;23.60;63.70;;;24.06;52.00;96983.16;5024848;28;20046;-46
2022/06/20 03:22:34;;;;;;;10.43;7.80;;;23.50;64.30;;;24.00;51.92;97000.53;5024271;28;20050;-48
2022/06/20 03:25:10;;;;;;;13.55;9.73;;;23.40;64.10;;;23.98;51.95;97019.81;5023526;28;20049;-46
2022/06/20 03:27:38;;;;;;;10.73;8.50;;;23.40;63.90;;;23.96;51.70;97032.84;5023121;28;20244;-47
2022/06/20 03:30:31;;;;;;;13.63;8.57;;;23.40;63.80;;;23.89;51.81;97049.41;5023674;28;20057;-49
2022/06/20 03:33:03;;;;;;;16.27;8.07;;;23.40;64.50;;;23.73;52.32;97066.63;5025186;28;20060;-48
2022/06/20 03:35:34;;;;;;;14.48;7.70;;;23.10;65.00;;;23.52;53.14;97047.47;5024481;28;20244;-46
2022/06/20 03:38:06;;;;;;;10.38;7.88;;;22.90;66.50;;;22.96;54.61;97044.19;5022966;28;20209;-45
2022/06/20 03:40:39;;;;;;;11.25;7.63;;;22.30;69.20;;;22.73;55.35;97029.81;5024547;28;20049;-47
2022/06/20 03:43:11;;;;;;;14.02;7.45;;;22.00;71.10;;;22.74;56.84;96996.22;5023444;28;20045;-46
2022/06/20 03:45:45;;;;;;;10.93;7.25;;;22.10;75.30;;;22.82;57.17;97022.06;5023362;28;20060;-50
2022/06/20 03:48:37;;;;;;;14.75;9.55;;;22.20;76.50;;;22.78;59.41;97046.16;5024200;28;20060;-51
2022/06/20 03:51:19;;;;;;;17.05;7.70;;;22.20;79.80;;;22.89;58.22;97046.28;5023102;28;20229;-50
2022/06/20 03:54:13;;;;;;;14.45;8.30;;;22.30;78.30;;;22.96;57.14;97065.91;5023317;28;20233;-44
2022/06/20 03:57:17;;;;;;;13.18;7.53;;;22.40;76.50;;;22.96;57.34;97072.16;5024547;28;20240;-46
2022/06/20 04:00:00;;;;;;;16.02;8.50;;;22.40;76.20;;;22.90;57.68;97048.75;5024783;28;20050;-49
2022/06/20 04:02:46;;;;;;;14.45;7.50;;;22.30;77.90;;;22.91;56.72;97084.84;5022490;28;20049;-49
2022/06/20 04:05:59;;;;;;;9.55;6.93;;;22.30;76.30;;;22.88;57.38;97082.66;5023427;28;20232;-49
2022/06/20 04:11:39;;;;;;;10.95;7.57;;;22.30;76.20;;;22.61;57.95;97073.38;5023107;28;20056;-48
2022/06/20 04:14:39;;;;;;;12.18;7.60;;;21.90;78.50;;;22.39;58.01;97061.69;5022630;28;20048;-47
2022/06/20 04:20:43;;;;;;;14.65;7.50;;;21.70;78.90;;;22.29;57.76;97072.41;5024095;28;20058;-46
2022/06/20 04:23:55;;;;;;;9.93;6.82;;;21.60;79.00;;;21.95;59.53;97085.97;5022758;28;20056;-47
2022/06/20 04:26:42;;;;;;;9.70;6.20;;;21.50;78.90;;;21.96;58.42;97077.59;5022487;28;20060;-48
2022/06/20 04:29:29;;;;;;;10.80;6.35;;;21.20;79.40;;;21.96;58.65;97034.22;5023425;28;20366;-46
2022/06/20 04:32:24;;;;;;;11.00;6.28;;;21.30;79.90;;;21.93;58.68;97052.91;5022812;28;20242;-47
2022/06/20 04:35:02;;;;;;;8.10;5.35;;;21.40;78.20;;;21.71;57.95;97096.97;5022320;28;20071;-47
2022/06/20 04:37:47;;;;;;;12.77;6.22;;;21.20;76.10;;;21.95;57.66;97092.22;5022412;28;20052;-47
2022/06/20 04:40:34;;;;;;;8.52;5.78;;;21.40;76.70;;;21.91;57.30;97088.38;5023561;28;20073;-47
2022/06/20 04:43:21;;;;;;;13.80;5.95;;;21.30;75.60;;;21.98;57.15;97108.00;5023405;28;20390;-48
2022/06/20 04:46:19;;;;;;;9.30;5.88;;;21.50;75.90;;;22.08;56.85;97088.34;5022241;28;20054;-46
2022/06/20 04:48:49;;;;;;;9.30;5.72;;;21.70;73.60;;;22.12;56.05;97084.06;5013406;28;20058;-47
2022/06/20 04:51:25;;;;;;;7.85;4.95;;;21.60;73.60;;;21.87;56.66;97067.41;5023289;28;20362;-45
2022/06/20 04:53:53;;;;;;;10.27;6.20;;;21.30;74.40;;;21.70;57.72;97086.41;5022233;28;20042;-48
2022/06/20 04:56:30;;;;;;;11.48;6.60;;;21.10;75.80;;;21.74;57.04;97103.81;5023640;28;20056;-48
2022/06/20 04:59:06;;;;;;;8.77;6.05;;;21.20;75.60;;;21.88;57.60;97110.53;5022518;28;20056;-46
2022/06/20 05:01:36;;;;;;;9.20;4.82;;;21.50;74.30;;;21.95;56.38;97085.97;5022096;28;20052;-46
2022/06/20 05:04:23;;;;;;;9.18;5.80;;;21.60;72.50;;;21.67;56.63;97081.47;5021971;28;20060;-51
2022/06/20 05:06:55;;;;;;;8.50;5.63;;;21.20;73.80;;;21.65;56.89;97070.06;5023205;28;20056;-46
2022/06/20 05:09:40;;;;;;;11.38;5.40;;;21.10;74.90;;;21.27;58.21;97064.25;5021694;28;20152;-50
2022/06/20 05:12:36;;;;;;;10.75;5.35;;;20.90;75.80;;;21.34;57.82;97069.50;5020887;28;20054;-46
2022/06/20 05:15:30;;;;;;;8.07;5.70;;;20.80;75.60;;;21.42;57.78;97080.78;5022186;28;20045;-47
2022/06/20 05:18:04;;;;;;;10.15;5.53;;;20.90;76.20;;;21.59;57.45;97085.41;5022829;28;20061;-47
2022/06/20 05:20:38;;;;;;;8.30;6.70;;;21.20;74.10;;;21.78;56.71;97057.00;5023212;28;20046;-50
2022/06/20 05:23:32;;;;;;;9.68;6.10;;;21.50;72.50;;;21.85;56.72;97037.88;5022753;28;20050;-48
2022/06/20 05:26:02;;;;;;;9.45;5.55;;;21.50;72.50;;;21.66;57.30;97037.31;5021148;28;20068;-47
2022/06/20 05:28:33;;;;;;;9.00;6.03;;;21.20;74.00;;;21.78;56.85;97062.41;5021475;28;20056;-48
2022/06/20 05:31:02;;;;;;;8.95;5.45;;;21.30;74.10;;;21.92;56.60;97079.16;5021610;28;20229;-47
2022/06/20 05:33:54;;;;;;;9.98;6.18;;;21.50;72.70;;;22.02;56.22;97078.47;5022823;28;20316;-48
2022/06/20 05:36:34;;;;;;;11.32;5.88;;;21.70;71.90;;;22.13;55.91;97082.19;5021571;28;20045;-47
2022/06/20 05:39:21;;;;;;;9.52;5.80;;;21.80;71.60;;;22.25;55.66;97082.09;5022499;28;20050;-46
2022/06/20 05:41:49;;;;;;;11.50;6.18;;;22.00;70.30;;;22.33;55.43;97079.78;5022592;28;20052;-50
2022/06/20 05:44:17;;;;;;;6.72;5.45;;;22.00;69.40;;;22.44;55.19;97088.88;5023034;28;20279;-48
2022/06/20 05:46:59;;;;;;;8.38;5.40;;;22.30;68.70;;;22.49;54.85;97101.66;5022171;28;20049;-47
2022/06/20 05:49:35;;;;;;;9.23;5.15;;;22.30;68.30;;;22.55;54.86;97123.19;5021424;28;20064;-49
2022/06/20 05:52:07;;;;;;;11.05;5.97;;;22.40;68.30;;;22.61;55.02;97130.34;5021168;28;20053;-48
2022/06/20 05:55:09;;;;;;;10.60;6.10;;;22.40;68.20;;;22.68;54.75;97130.16;5022408;28;20052;-47
2022/06/20 05:57:41;;;;;;;8.85;6.05;;;22.40;68.20;;;22.71;54.72;97139.69;5021982;28;20042;-44
2022/06/20 06:00:33;;;;;;;10.00;6.22;;;22.40;68.00;;;22.75;55.06;97148.97;5021445;28;20046;-48
2022/06/20 06:03:13;;;;;;;7.97;5.65;;;22.50;69.70;;;22.80;55.06;97154.47;5021929;28;20064;-46
2022/06/20 06:05:53;;;;;;;8.90;5.68;;;22.50;69.40;;;22.90;55.13;97135.59;5021113;28;20068;-48
2022/06/20 06:08:34;;;;;;;10.15;6.00;;;22.70;69.10;;;22.97;55.10;97141.66;5022025;28;20050;-47
2022/06/20 06:11:57;;;;;;;13.35;6.05;;;22.80;68.40;;;23.02;54.54;97134.63;5021127;28;20045;-49
2022/06/20 06:14:43;;;;;;;9.57;5.68;;;22.80;67.80;;;23.00;54.80;97132.16;5021862;28;20053;-47
2022/06/20 06:17:35;;;;;;;11.68;6.53;;;22.80;68.00;;;22.98;54.71;97127.00;5021215;28;20045;-51
2022/06/20 06:20:19;;;;;;;10.10;6.10;;;22.70;68.80;;;22.88;55.62;97129.59;5021724;28;20046;-46
2022/06/20 06:22:53;;;;;;;11.80;6.40;;;22.50;70.00;;;22.82;54.91;97111.63;5021181;28;20050;-46
2022/06/20 06:25:39;;;;;;;11.30;6.00;;;22.40;69.60;;;22.84;54.90;97128.47;5022499;28;20056;-48
2022/06/20 06:28:23;;;;;;;12.68;7.10;;;22.50;69.50;;;22.90;55.02;97118.50;5025987;28;20045;-48
2022/06/20 06:31:04;;;;;;;9.82;7.15;;;22.60;69.10;;;22.94;54.88;97115.00;5024471;28;20053;-51
2022/06/20 06:33:50;;;;;;;13.43;7.47;;;22.60;68.20;;;22.95;54.77;97123.97;5024979;28;20050;-49
2022/06/20 06:36:59;;;;;;;13.32;8.27;;;22.60;68.30;;;22.96;55.51;97126.44;5024920;28;20046;-47
2022/06/20 06:40:00;;;;;;;8.57;6.57;;;22.70;70.80;;;23.07;54.96;97124.69;5007987;28;20054;-47
2022/06/20 06:42:27;;;;;;;13.32;7.63;;;22.90;69.20;;;23.04;55.59;97121.66;5025607;28;20046;-48
2022/06/20 06:44:58;;;;;;;10.15;5.95;;;22.80;69.40;;;22.96;55.78;97126.44;5025569;28;20095;-53
2022/06/20 06:47:45;;;;;;;11.85;6.57;;;22.70;69.90;;;23.04;55.90;97133.34;5024360;28;20049;-48
2022/06/20 06:50:20;;;;;;;9.48;6.90;;;22.80;69.40;;;23.09;55.57;97127.13;5024660;28;20076;-48
2022/06/20 06:52:58;;;;;;;10.27;7.70;;;22.90;69.00;;;23.07;55.64;97130.13;5023961;28;20053;-48
2022/06/20 06:55:59;;;;;;;16.00;6.57;;;22.90;69.10;;;23.21;55.16;97127.81;5025810;28;20054;-45
2022/06/20 06:58:46;;;;;;;11.70;6.88;;;23.10;68.00;;;23.36;54.76;97133.44;5023977;28;20054;-47
2022/06/20 07:01:28;;;;;;;10.02;5.68;;;23.30;67.00;;;23.49;54.18;97131.38;5025670;28;20045;-47
2022/06/20 07:04:29;;;;;;;10.20;5.47;;;23.50;65.70;;;23.50;53.28;97130.31;5024540;28;20056;-46
2022/06/20 07:07:46;;;;;;;12.15;5.75;;;23.50;62.70;;;23.55;52.59;97142.03;5025312;28;20060;-46
2022/06/20 07:10:52;;;;;;;8.07;6.28;;;23.60;62.80;;;23.67;53.13;97141.03;5024293;28;20053;-48
2022/06/20 07:13:49;;;;;;;9.07;5.97;;;23.70;63.50;;;23.77;52.08;97135.72;5024781;28;20053;-48
2022/06/20 07:16:48;;;;;;;9.63;6.93;;;23.90;61.30;;;23.75;52.81;97140.59;5024127;28;20050;-44
2022/06/20 07:19:16;;;;;;;9.55;5.72;;;23.80;62.70;;;23.78;52.46;97146.34;5024818;28;20161;-44
2022/06/20 07:21:44;;;;;;;6.05;5.38;;;23.90;61.30;;;23.83;52.06;97153.72;5025174;28;20056;-47
2022/06/20 07:24:40;;;;;;;10.57;7.18;;;24.00;61.30;;;23.88;50.66;97151.03;5023857;28;20048;-47
2022/06/20 07:27:43;;;;;;;12.40;6.65;;;24.10;59.20;;;23.87;50.77;97173.88;5024484;28;20049;-49
2022/06/20 07:30:30;;;;;;;10.97;5.77;;;24.20;58.80;;;23.84;50.85;97168.13;5025037;28;20064;-47
2022/06/20 07:33:37;;;;;;;11.73;6.32;;;24.10;59.10;;;23.78;50.73;97173.50;5023799;28;20287;-46
2022/06/20 07:36:09;;;;;;;7.45;5.38;;;24.10;58.90;;;23.89;50.40;97163.56;5024106;28;20050;-45
2022/06/20 07:38:50;;;;;;;10.80;5.65;;;24.10;58.70;;;23.98;49.87;97170.16;5023458;28;20053;-46
2022/06/20 07:41:42;;;;;;;11.38;6.40;;;24.20;57.80;;;23.92;50.20;97173.09;5023649;28;20056;-51
2022/06/20 07:44:31;;;;;;;9.95;6.05;;;24.20;57.90;;;23.90;50.48;97172.53;5023277;28;20058;-48
2022/06/20 07:47:14;;;;;;;5.50;4.93;;;24.20;58.60;;;24.03;50.65;97172.09;5023429;28;20052;-49
2022/06/20 07:49:50;;;;;;;9.43;5.85;;;24.20;59.00;;;23.85;50.58;97181.47;5024375;28;20056;-46
2022/06/20 07:52:38;;;;;;;9.82;5.90;;;24.10;58.60;;;23.66;51.24;97191.03;5023260;28;20061;-45
2022/06/20 07:55:13;;;;;;;8.15;5.18;;;23.90;59.60;;;23.75;51.73;97200.38;5024280;28;20097;-46
2022/06/20 07:57:47;;;;;;;11.63;6.80;;;23.90;61.00;;;23.67;52.54;97192.66;5022956;28;20045;-47
2022/06/20 08:00:19;;;;;;;14.57;6.28;;;23.80;62.80;;;23.85;52.36;97202.41;5023392;28;20072;-46
2022/06/20 08:03:36;;;;;;;9.38;6.43;;;23.90;61.80;;;23.54;51.79;97204.78;5024288;28;20240;-47
2022/06/20 08:06:37;;;;;;;8.73;5.82;;;23.80;59.80;;;23.67;51.36;97208.97;5014537;28;20052;-51
2022/06/20 08:09:19;;;;;;;10.52;6.00;;;23.80;60.10;;;23.65;53.38;97205.69;5022963;28;20048;-47
2022/06/20 08:12:07;;;;;;;12.88;6.05;;;23.70;63.10;;;23.61;52.50;97210.00;5022511;28;20049;-48
2022/06/20 08:15:02;;;;;;;10.98;5.80;;;23.80;61.20;;;23.75;52.84;97216.69;5022779;28;20320;-46
2022/06/20 08:17:31;;;;;;;9.27;5.60;;;23.80;62.30;;;23.65;52.98;97206.53;5023752;28;20053;-49
2022/06/20 08:20:00;;;;;;;9.75;6.28;;;23.80;62.70;;;23.77;52.70;97198.22;5022933;28;20045;-47
2022/06/20 08:23:02;;;;;;;7.75;6.00;;;23.80;62.10;;;23.70;52.93;97182.09;5023810;28;20058;-51
2022/06/20 08:25:46;;;;;;;10.35;5.72;;;23.80;62.20;;;23.80;51.72;97188.75;5022853;28;20248;-50
2022/06/20 08:28:45;;;;;;;8.02;5.82;;;24.00;60.60;;;23.82;50.45;97198.28;5022564;28;20064;-48
2022/06/20 08:31:37;;;;;;;7.53;6.03;;;23.90;58.80;;;23.84;51.00;97195.31;5022725;28;20243;-49
2022/06/20 08:34:18;;;;;;;7.03;5.18;;;24.00;59.30;;;23.93;50.18;97188.34;5023685;28;20367;-46
2022/06/20 08:37:00;;;;;;;13.50;6.32;;;24.00;58.00;;;24.00;50.15;97182.66;5023638;28;20056;-47
2022/06/20 08:39:48;;;;;;;8.65;5.05;;;24.10;57.80;;;24.14;50.08;97182.00;5022388;28;20050;-46
2022/06/20 08:42:47;;;;;;;8.13;6.13;;;24.30;57.90;;;24.08;48.70;97188.47;5023628;28;20133;-45
2022/06/20 08:46:03;;;;;;;12.68;6.15;;;24.30;56.20;;;24.28;48.48;97182.38;5022670;28;20064;-45
2022/06/20 08:48:58;;;;;;;10.07;6.30;;;24.50;55.90;;;24.46;48.03;97174.88;5023167;28;20053;-46
2022/06/20 08:52:06;;;;;;;7.50;6.25;;;24.70;55.40;;;24.51;48.23;97180.38;5023437;28;20054;-45
2022/06/20 08:55:05;;;;;;;11.70;6.35;;;24.80;55.30;;;24.65;47.92;97194.34;5022905;28;20237;-45
2022/06/20 08:57:49;;;;;;;9.10;6.32;;;24.90;55.60;;;24.63;47.58;97213.66;5023083;28;20068;-50
2022/06/20 09:00:51;;;;;;;7.85;6.88;;;25.00;54.40;;;24.76;48.38;97212.38;5021941;28;20053;-47
2022/06/20 09:03:28;;;;;;;10.68;6.03;;;25.20;54.50;;;25.00;46.80;97209.25;5022406;28;20344;-48
2022/06/20 09:06:26;;;;;;;10.23;6.45;;;25.50;52.80;;;25.15;46.84;97201.13;5023190;28;20052;-50
2022/06/20 09:09:13;;;;;;;10.98;6.03;;;25.60;52.70;;;25.22;46.34;97207.19;5023214;28;20068;-49
2022/06/20 09:12:00;;;;;;;10.15;6.90;;;25.80;51.90;;;25.45;46.42;97195.00;5022422;28;20056;-52
2022/06/20 09:14:53;;;;;;;11.73;7.28;;;25.90;51.80;;;25.36;45.46;97199.34;5023413;28;20236;-51
2022/06/20 09:17:45;;;;;;;10.15;6.40;;;26.00;51.70;;;25.65;45.80;97201.59;5022119;28;20054;-46
2022/06/20 09:20:57;;;;;;;13.85;6.90;;;26.20;51.40;;;25.79;45.43;97240.88;5023261;28;20049;-47
2022/06/20 09:23:43;;;;;;;7.53;6.30;;;26.20;50.60;;;25.98;44.18;97227.59;5021875;28;20057;-50
2022/06/20 09:26:40;;;;;;;9.13;6.82;;;26.50;49.80;;;25.96;44.56;97226.22;5022610;28;20361;-47
2022/06/20 09:29:23;;;;;;;7.75;6.20;;;26.50;50.00;;;25.72;44.69;97227.50;5020698;28;20049;-46
2022/06/20 09:32:16;;;;;;;10.20;6.70;;;26.10;50.80;;;25.76;44.44;97218.78;5022872;28;20046;-47
2022/06/20 09:35:28;;;;;;;10.13;6.88;;;26.20;50.60;;;25.56;44.44;97219.56;5022554;28;20048;-47
2022/06/20 09:38:31;;;;;;;9.57;6.82;;;25.80;50.90;;;25.31;45.10;97229.28;5022423;28;20248;-49
2022/06/20 09:41:24;;;;;;;9.57;6.47;;;25.50;51.60;;;25.43;45.39;97229.88;5022535;28;20049;-48
2022/06/20 09:44:29;;;;;;;14.75;6.97;;;25.60;51.80;;;25.52;44.80;97224.72;5022463;28;20289;-46
2022/06/20 09:47:42;;;;;;;10.77;6.18;;;25.90;50.90;;;25.41;45.65;97226.59;5022961;28;20072;-49
2022/06/20 09:50:59;;;;;;;11.93;6.80;;;25.80;51.90;;;25.54;45.73;97219.84;5021441;28;20124;-48
2022/06/20 09:53:31;;;;;;;10.52;7.00;;;25.80;51.70;;;25.67;45.47;97213.88;5022598;28;20347;-46
2022/06/20 09:56:19;;;;;;;15.45;6.05;;;25.90;51.60;;;25.74;45.41;97219.91;5023326;28;20046;-46
2022/06/20 09:59:24;;;;;;;10.77;6.10;;;26.10;51.80;;;25.84;45.10;97219.09;5021885;28;20057;-48
2022/06/20 10:02:43;;;;;;;12.00;6.05;;;26.20;51.00;;;25.96;44.91;97216.16;5020847;28;20057;-48
2022/06/20 10:05:18;;;;;;;12.18;5.68;;;26.30;50.70;;;26.03;44.39;97234.97;5021901;28;20072;-48
2022/06/20 10:08:06;;;;;;;8.93;6.03;;;26.50;50.00;;;26.04;44.48;97221.06;5022082;28;20063;-48
2022/06/20 10:10:46;;;;;;;10.93;6.00;;;26.40;50.60;;;26.11;44.33;97224.34;5020203;28;20056;-48
2022/06/20 10:14:10;;;;;;;8.52;6.63;;;26.50;50.30;;;26.22;44.30;97230.59;5022129;28;20244;-50
2022/06/20 10:17:05;;;;;;;11.25;6.78;;;26.60;50.00;;;26.04;44.92;97226.50;5005643;28;20050;-50
2022/06/20 10:20:11;;;;;;;12.00;6.50;;;26.30;50.90;;;25.82;44.95;97229.44;5035787;28;20048;-50
2022/06/20 10:23:10;;;;;;;10.52;6.28;;;26.20;51.30;;;25.90;44.86;97231.66;5022309;28;20053;-50
2022/06/20 10:25:59;;;;;;;8.10;6.82;;;26.10;51.80;;;26.08;44.72;97243.16;5019658;28;20252;-48
2022/06/20 10:29:22;;;;;;;13.13;7.53;;;26.30;51.00;;;26.02;44.49;97236.88;5021628;28;20048;-48
2022/06/20 10:32:09;;;;;;;10.98;6.82;;;26.40;50.10;;;26.28;44.14;97239.63;5021476;28;20068;-48
2022/06/20 10:35:14;;;;;;;8.55;5.80;;;26.50;50.50;;;26.08;44.29;97249.41;5022534;28;20050;-48
2022/06/20 10:38:03;;;;;;;9.55;6.20;;;26.30;50.60;;;26.01;44.76;97264.41;5020623;28;20053;-47
2022/06/20 10:40:50;;;;;;;11.10;7.20;;;26.20;51.30;;;25.88;44.85;97263.81;5021970;28;20058;-50
2022/06/20 10:43:44;;;;;;;6.88;5.53;;;26.00;51.80;;;25.95;44.53;97260.03;5021589;28;20065;-49
2022/06/20 10:46:24;;;;;;;9.18;6.68;;;26.10;51.50;;;25.88;44.46;97247.47;5022005;28;20053;-47
2022/06/20 10:49:08;;;;;;;12.00;7.28;;;26.10;51.30;;;25.76;45.13;97251.50;5021763;28;20053;-45
2022/06/20 10:52:07;;;;;;;9.35;6.13;;;25.90;51.60;;;25.66;44.26;97255.84;5021919;28;20250;-46
2022/06/20 10:54:56;;;;;;;8.88;5.88;;;25.90;50.30;;;25.78;43.87;97261.03;5020783;28;20056;-47
2022/06/20 10:58:02;;;;;;;12.15;6.55;;;26.10;50.60;;;25.78;44.63;97260.22;5021654;28;20056;-47
2022/06/20 11:00:41;;;;;;;10.95;7.35;;;25.90;50.80;;;25.51;44.85;97275.69;5021136;28;20056;-48
2022/06/20 11:03:11;;;;;;;13.98;5.80;;;25.60;51.20;;;25.53;45.21;97272.69;5020926;28;20053;-48
2022/06/20 11:05:52;;;;;;;8.82;6.18;;;25.50;53.00;;;25.41;45.20;97272.09;5021688;28;20152;-50
2022/06/20 11:08:43;;;;;;;9.57;6.55;;;25.50;52.00;;;25.21;45.66;97276.34;5020527;28;20057;-49
2022/06/20 11:12:03;;;;;;;14.70;6.72;;;25.20;53.60;;;25.16;45.93;97281.75;5021667;28;20111;-48
2022/06/20 11:14:57;;;;;;;6.97;5.45;;;25.20;53.30;;;25.26;45.96;97297.34;5023070;28;20049;-49
2022/06/20 11:18:38;;;;;;;11.23;6.70;;;25.20;53.40;;;24.84;46.83;97304.44;5022876;28;20395;-48
2022/06/20 11:21:35;;;;;;;9.13;6.70;;;24.90;54.40;;;24.71;47.91;97302.16;5034543;28;20062;-48
2022/06/20 11:24:28;;;;;;;13.73;6.82;;;24.80;55.70;;;24.92;48.04;97294.97;5025013;28;20045;-46
2022/06/20 11:27:10;;;;;;;9.02;6.68;;;25.10;55.30;;;25.03;47.71;97307.56;5023928;28;20245;-49
2022/06/20 11:29:48;;;;;;;8.48;5.85;;;25.20;55.10;;;25.08;47.17;97304.03;5024896;28;20048;-47
2022/06/20 11:32:46;;;;;;;10.52;6.53;;;25.30;54.10;;;25.29;47.34;97305.00;5024895;28;20054;-46
2022/06/20 11:35:46;;;;;;;10.43;5.78;;;25.60;54.30;;;25.40;46.67;97308.63;5024807;28;20287;-46
2022/06/20 11:38:27;;;;;;;10.52;6.03;;;25.60;53.60;;;25.34;47.05;97305.84;5023652;28;20244;-47
2022/06/20 11:41:05;;;;;;;11.60;6.47;;;25.50;54.20;;;25.16;47.64;97308.97;5024726;28;20054;-45